sensor_id;sensor_type;location;lat;lon;timestamp;pressure;altitude;pressure_sealevel;temperature;humidity
12793;BME280;6460;42.684;23.260;2023-08-01T00:00:47;94260.03;;;20.95;80.25
12793;BME280;6460;42.684;23.260;2023-08-01T00:03:14;94264.47;;;21.05;79.63
12793;BME280;6460;42.684;23.260;2023-08-01T00:05:43;94265.78;;;21.30;79.04
12793;BME280;6460;42.684;23.260;2023-08-01T00:08:11;94259.13;;;21.31;78.66
12793;BME280;6460;42.684;23.260;2023-08-01T00:10:39;94263.59;;;21.25;78.10
12793;BME280;6460;42.684;23.260;2023-08-01T00:13:07;94258.09;;;21.41;77.68
12793;BME280;6460;42.684;23.260;2023-08-01T00:15:34;94251.94;;;21.37;77.67
12793;BME280;6460;42.684;23.260;2023-08-01T00:18:02;94243.75;;;21.37;77.83
12793;BME280;6460;42.684;23.260;2023-08-01T00:20:29;94248.47;;;21.49;77.30
12793;BME280;6460;42.684;23.260;2023-08-01T00:22:58;94248.38;;;21.52;76.94
12793;BME280;6460;42.684;23.260;2023-08-01T00:25:25;94250.13;;;21.46;76.33
12793;BME280;6460;42.684;23.260;2023-08-01T00:27:53;94250.03;;;21.50;75.59
12793;BME280;6460;42.684;23.260;2023-08-01T00:30:20;94247.72;;;21.48;76.57
12793;BME280;6460;42.684;23.260;2023-08-01T00:32:48;94253.94;;;21.49;76.11
12793;BME280;6460;42.684;23.260;2023-08-01T00:35:15;94250.66;;;21.54;75.82
12793;BME280;6460;42.684;23.260;2023-08-01T00:37:42;94252.84;;;21.18;76.16
12793;BME280;6460;42.684;23.260;2023-08-01T00:40:11;94248.94;;;21.19;76.97
12793;BME280;6460;42.684;23.260;2023-08-01T00:42:39;94257.34;;;21.24;76.82
12793;BME280;6460;42.684;23.260;2023-08-01T00:45:08;94253.19;;;21.20;76.85
12793;BME280;6460;42.684;23.260;2023-08-01T00:47:35;94252.31;;;21.23;75.95
12793;BME280;6460;42.684;23.260;2023-08-01T00:50:03;94250.63;;;20.96;77.49
12793;BME280;6460;42.684;23.260;2023-08-01T00:52:30;94246.38;;;20.79;78.02
12793;BME280;6460;42.684;23.260;2023-08-01T00:54:58;94242.41;;;21.13;76.85
12793;BME280;6460;42.684;23.260;2023-08-01T00:57:27;94236.63;;;20.94;77.81
12793;BME280;6460;42.684;23.260;2023-08-01T00:59:55;94243.97;;;21.14;76.46
12793;BME280;6460;42.684;23.260;2023-08-01T01:02:22;94245.94;;;21.13;76.44
12793;BME280;6460;42.684;23.260;2023-08-01T01:04:50;94243.97;;;20.97;76.40
12793;BME280;6460;42.684;23.260;2023-08-01T01:07:17;94243.97;;;20.97;76.41
12793;BME280;6460;42.684;23.260;2023-08-01T01:09:46;94249.44;;;20.81;77.00
12793;BME280;6460;42.684;23.260;2023-08-01T01:12:14;94249.91;;;20.80;77.54
12793;BME280;6460;42.684;23.260;2023-08-01T01:14:42;94241.69;;;20.80;77.10
12793;BME280;6460;42.684;23.260;2023-08-01T01:17:10;94231.72;;;20.73;77.11
12793;BME280;6460;42.684;23.260;2023-08-01T01:19:37;94232.56;;;20.38;78.80
12793;BME280;6460;42.684;23.260;2023-08-01T01:22:07;94227.00;;;20.25;79.10
12793;BME280;6460;42.684;23.260;2023-08-01T01:24:37;94232.22;;;20.52;78.17
12793;BME280;6460;42.684;23.260;2023-08-01T01:27:05;94221.28;;;20.52;77.65
12793;BME280;6460;42.684;23.260;2023-08-01T01:29:33;94230.63;;;20.54;77.93
12793;BME280;6460;42.684;23.260;2023-08-01T01:32:01;94219.09;;;20.47;77.78
12793;BME280;6460;42.684;23.260;2023-08-01T01:34:30;94212.78;;;20.50;77.61
12793;BME280;6460;42.684;23.260;2023-08-01T01:36:57;94210.56;;;20.45;77.93
12793;BME280;6460;42.684;23.260;2023-08-01T01:39:26;94214.81;;;20.62;77.66
12793;BME280;6460;42.684;23.260;2023-08-01T01:41:53;94214.47;;;20.76;76.75
12793;BME280;6460;42.684;23.260;2023-08-01T01:44:20;94216.13;;;20.57;77.24
12793;BME280;6460;42.684;23.260;2023-08-01T01:46:48;94221.56;;;20.74;76.99
12793;BME280;6460;42.684;23.260;2023-08-01T01:49:16;94224.38;;;20.54;77.49
12793;BME280;6460;42.684;23.260;2023-08-01T01:51:43;94220.13;;;20.53;77.55
12793;BME280;6460;42.684;23.260;2023-08-01T01:54:10;94221.28;;;20.36;77.44
12793;BME280;6460;42.684;23.260;2023-08-01T01:56:39;94220.63;;;20.64;75.83
12793;BME280;6460;42.684;23.260;2023-08-01T01:59:06;94220.84;;;20.86;74.58
12793;BME280;6460;42.684;23.260;2023-08-01T02:01:34;94215.31;;;20.73;74.91
12793;BME280;6460;42.684;23.260;2023-08-01T02:04:01;94220.41;;;20.87;74.14
12793;BME280;6460;42.684;23.260;2023-08-01T02:06:28;94216.25;;;20.83;73.44
12793;BME280;6460;42.684;23.260;2023-08-01T02:08:56;94223.69;;;20.82;73.89
12793;BME280;6460;42.684;23.260;2023-08-01T02:11:23;94227.69;;;20.78;74.26
12793;BME280;6460;42.684;23.260;2023-08-01T02:13:52;94225.03;;;20.90;73.70
12793;BME280;6460;42.684;23.260;2023-08-01T02:16:19;94220.69;;;20.77;74.25
12793;BME280;6460;42.684;23.260;2023-08-01T02:18:47;94222.50;;;20.83;73.57
12793;BME280;6460;42.684;23.260;2023-08-01T02:21:14;94221.81;;;20.79;72.99
12793;BME280;6460;42.684;23.260;2023-08-01T02:23:41;94216.34;;;20.79;72.16
12793;BME280;6460;42.684;23.260;2023-08-01T02:26:09;94218.31;;;20.79;72.07
12793;BME280;6460;42.684;23.260;2023-08-01T02:28:36;94219.41;;;20.65;72.86
12793;BME280;6460;42.684;23.260;2023-08-01T02:31:05;94218.94;;;20.54;73.78
12793;BME280;6460;42.684;23.260;2023-08-01T02:33:32;94219.78;;;20.67;72.91
12793;BME280;6460;42.684;23.260;2023-08-01T02:36:00;94214.66;;;20.69;72.80
12793;BME280;6460;42.684;23.260;2023-08-01T02:38:27;94222.69;;;20.60;73.65
12793;BME280;6460;42.684;23.260;2023-08-01T02:40:55;94214.31;;;20.67;73.62
12793;BME280;6460;42.684;23.260;2023-08-01T02:43:22;94213.69;;;20.76;73.05
12793;BME280;6460;42.684;23.260;2023-08-01T02:45:50;94218.22;;;20.66;73.25
12793;BME280;6460;42.684;23.260;2023-08-01T02:48:18;94220.09;;;20.69;72.81
12793;BME280;6460;42.684;23.260;2023-08-01T02:50:46;94225.22;;;20.83;73.06
12793;BME280;6460;42.684;23.260;2023-08-01T02:53:13;94219.16;;;20.76;73.26
12793;BME280;6460;42.684;23.260;2023-08-01T02:55:41;94212.59;;;20.73;72.83
12793;BME280;6460;42.684;23.260;2023-08-01T02:58:09;94221.03;;;19.94;75.88
12793;BME280;6460;42.684;23.260;2023-08-01T03:00:37;94227.63;;;19.61;78.46
12793;BME280;6460;42.684;23.260;2023-08-01T03:03:06;94219.13;;;19.75;77.51
12793;BME280;6460;42.684;23.260;2023-08-01T03:05:37;94221.31;;;19.64;78.24
12793;BME280;6460;42.684;23.260;2023-08-01T03:08:04;94222.34;;;19.70;78.02
12793;BME280;6460;42.684;23.260;2023-08-01T03:10:32;94218.75;;;19.93;76.70
12793;BME280;6460;42.684;23.260;2023-08-01T03:12:59;94215.47;;;19.46;78.28
12793;BME280;6460;42.684;23.260;2023-08-01T03:15:27;94215.41;;;19.85;75.11
12793;BME280;6460;42.684;23.260;2023-08-01T03:17:54;94222.34;;;19.70;77.13
12793;BME280;6460;42.684;23.260;2023-08-01T03:20:21;94224.69;;;19.88;76.19
12793;BME280;6460;42.684;23.260;2023-08-01T03:22:50;94228.81;;;19.96;74.30
12793;BME280;6460;42.684;23.260;2023-08-01T03:25:18;94227.56;;;20.00;74.37
12793;BME280;6460;42.684;23.260;2023-08-01T03:27:45;94227.78;;;19.90;75.07
12793;BME280;6460;42.684;23.260;2023-08-01T03:30:12;94228.38;;;19.81;75.52
12793;BME280;6460;42.684;23.260;2023-08-01T03:32:40;94231.09;;;19.97;75.26
12793;BME280;6460;42.684;23.260;2023-08-01T03:35:08;94228.59;;;20.06;74.78
12793;BME280;6460;42.684;23.260;2023-08-01T03:37:35;94226.81;;;19.80;75.51
12793;BME280;6460;42.684;23.260;2023-08-01T03:40:05;94228.94;;;20.08;74.87
12793;BME280;6460;42.684;23.260;2023-08-01T03:42:34;94232.81;;;20.27;74.43
12793;BME280;6460;42.684;23.260;2023-08-01T03:45:02;94228.75;;;20.35;74.36
12793;BME280;6460;42.684;23.260;2023-08-01T03:47:29;94227.97;;;20.35;75.01
12793;BME280;6460;42.684;23.260;2023-08-01T03:49:57;94233.06;;;20.49;75.43
12793;BME280;6460;42.684;23.260;2023-08-01T03:52:25;94231.88;;;20.50;74.20
12793;BME280;6460;42.684;23.260;2023-08-01T03:54:54;94230.00;;;20.47;75.05
12793;BME280;6460;42.684;23.260;2023-08-01T03:57:23;94237.34;;;20.50;75.26
12793;BME280;6460;42.684;23.260;2023-08-01T03:59:50;94236.84;;;20.39;74.58
12793;BME280;6460;42.684;23.260;2023-08-01T04:02:18;94239.88;;;20.25;75.79
12793;BME280;6460;42.684;23.260;2023-08-01T04:04:45;94238.66;;;20.10;77.20
12793;BME280;6460;42.684;23.260;2023-08-01T04:07:13;94236.94;;;19.99;77.80
12793;BME280;6460;42.684;23.260;2023-08-01T04:09:40;94239.81;;;19.92;78.22
12793;BME280;6460;42.684;23.260;2023-08-01T04:12:08;94237.59;;;19.87;78.37
12793;BME280;6460;42.684;23.260;2023-08-01T04:14:37;94236.13;;;19.83;78.43
12793;BME280;6460;42.684;23.260;2023-08-01T04:17:04;94240.38;;;19.84;79.08
12793;BME280;6460;42.684;23.260;2023-08-01T04:19:32;94236.88;;;19.83;80.29
12793;BME280;6460;42.684;23.260;2023-08-01T04:21:59;94235.09;;;19.77;81.20
12793;BME280;6460;42.684;23.260;2023-08-01T04:24:26;94243.47;;;19.66;81.46
12793;BME280;6460;42.684;23.260;2023-08-01T04:26:55;94249.78;;;19.63;82.20
12793;BME280;6460;42.684;23.260;2023-08-01T04:29:22;94257.59;;;19.61;83.74
12793;BME280;6460;42.684;23.260;2023-08-01T04:31:51;94249.56;;;19.54;83.76
12793;BME280;6460;42.684;23.260;2023-08-01T04:34:18;94253.13;;;19.51;83.53
12793;BME280;6460;42.684;23.260;2023-08-01T04:36:46;94253.97;;;19.48;82.99
12793;BME280;6460;42.684;23.260;2023-08-01T04:39:13;94256.28;;;19.49;82.88
12793;BME280;6460;42.684;23.260;2023-08-01T04:41:40;94249.75;;;19.24;82.30
12793;BME280;6460;42.684;23.260;2023-08-01T04:44:07;94254.50;;;19.39;81.14
12793;BME280;6460;42.684;23.260;2023-08-01T04:46:35;94246.75;;;19.38;80.92
12793;BME280;6460;42.684;23.260;2023-08-01T04:49:04;94251.78;;;19.20;81.31
12793;BME280;6460;42.684;23.260;2023-08-01T04:51:31;94247.63;;;19.12;81.87
12793;BME280;6460;42.684;23.260;2023-08-01T04:53:58;94245.03;;;19.24;82.00
12793;BME280;6460;42.684;23.260;2023-08-01T04:56:25;94247.13;;;19.40;80.45
12793;BME280;6460;42.684;23.260;2023-08-01T04:58:52;94238.31;;;19.52;79.99
12793;BME280;6460;42.684;23.260;2023-08-01T05:01:20;94245.44;;;19.66;79.83
12793;BME280;6460;42.684;23.260;2023-08-01T05:03:47;94242.16;;;19.74;79.42
12793;BME280;6460;42.684;23.260;2023-08-01T05:06:16;94247.75;;;19.47;80.29
12793;BME280;6460;42.684;23.260;2023-08-01T05:08:44;94240.78;;;19.82;79.68
12793;BME280;6460;42.684;23.260;2023-08-01T05:11:11;94245.97;;;19.96;78.29
12793;BME280;6460;42.684;23.260;2023-08-01T05:13:38;94249.38;;;20.17;77.12
12793;BME280;6460;42.684;23.260;2023-08-01T05:16:06;94250.44;;;20.23;76.97
12793;BME280;6460;42.684;23.260;2023-08-01T05:18:33;94247.63;;;20.10;77.55
12793;BME280;6460;42.684;23.260;2023-08-01T05:21:00;94252.97;;;20.14;77.46
12793;BME280;6460;42.684;23.260;2023-08-01T05:23:29;94248.78;;;20.29;77.03
12793;BME280;6460;42.684;23.260;2023-08-01T05:25:56;94246.91;;;20.42;76.48
12793;BME280;6460;42.684;23.260;2023-08-01T05:28:24;94255.78;;;20.46;76.18
12793;BME280;6460;42.684;23.260;2023-08-01T05:30:51;94256.22;;;20.61;76.05
12793;BME280;6460;42.684;23.260;2023-08-01T05:33:18;94256.13;;;20.64;75.31
12793;BME280;6460;42.684;23.260;2023-08-01T05:35:46;94249.53;;;20.62;75.67
12793;BME280;6460;42.684;23.260;2023-08-01T05:38:13;94252.53;;;20.83;74.21
12793;BME280;6460;42.684;23.260;2023-08-01T05:40:42;94258.31;;;21.01;73.39
12793;BME280;6460;42.684;23.260;2023-08-01T05:43:09;94245.84;;;21.00;73.42
12793;BME280;6460;42.684;23.260;2023-08-01T05:45:37;94247.63;;;21.07;72.95
12793;BME280;6460;42.684;23.260;2023-08-01T05:48:05;94251.97;;;21.21;73.07
12793;BME280;6460;42.684;23.260;2023-08-01T05:50:32;94247.94;;;21.25;73.12
12793;BME280;6460;42.684;23.260;2023-08-01T05:52:59;94236.97;;;21.41;72.66
12793;BME280;6460;42.684;23.260;2023-08-01T05:55:27;94231.63;;;21.38;72.83
12793;BME280;6460;42.684;23.260;2023-08-01T05:57:56;94248.47;;;21.49;70.81
12793;BME280;6460;42.684;23.260;2023-08-01T06:00:24;94237.66;;;21.58;70.37
12793;BME280;6460;42.684;23.260;2023-08-01T06:02:51;94236.84;;;21.74;70.23
12793;BME280;6460;42.684;23.260;2023-08-01T06:05:18;94228.22;;;21.88;69.77
12793;BME280;6460;42.684;23.260;2023-08-01T06:07:45;94236.59;;;21.97;69.08
12793;BME280;6460;42.684;23.260;2023-08-01T06:10:13;94234.72;;;21.94;68.13
12793;BME280;6460;42.684;23.260;2023-08-01T06:12:40;94229.91;;;21.98;68.15
12793;BME280;6460;42.684;23.260;2023-08-01T06:15:10;94222.91;;;22.22;67.37
12793;BME280;6460;42.684;23.260;2023-08-01T06:17:37;94226.53;;;22.32;63.63
12793;BME280;6460;42.684;23.260;2023-08-01T06:20:06;94227.41;;;22.29;65.13
12793;BME280;6460;42.684;23.260;2023-08-01T06:22:33;94227.72;;;22.31;64.62
12793;BME280;6460;42.684;23.260;2023-08-01T06:25:01;94228.72;;;22.37;63.45
12793;BME280;6460;42.684;23.260;2023-08-01T06:27:28;94224.31;;;22.52;63.11
12793;BME280;6460;42.684;23.260;2023-08-01T06:29:56;94227.28;;;22.45;63.35
12793;BME280;6460;42.684;23.260;2023-08-01T06:32:25;94228.84;;;22.33;63.98
12793;BME280;6460;42.684;23.260;2023-08-01T06:34:52;94227.06;;;22.52;62.97
12793;BME280;6460;42.684;23.260;2023-08-01T06:37:19;94213.78;;;22.63;62.85
12793;BME280;6460;42.684;23.260;2023-08-01T06:39:47;94217.94;;;22.80;61.46
12793;BME280;6460;42.684;23.260;2023-08-01T06:42:14;94217.22;;;23.01;60.23
12793;BME280;6460;42.684;23.260;2023-08-01T06:44:42;94213.94;;;23.06;59.90
12793;BME280;6460;42.684;23.260;2023-08-01T06:47:10;94219.66;;;22.99;59.71
12793;BME280;6460;42.684;23.260;2023-08-01T06:49:38;94221.88;;;23.26;59.31
12793;BME280;6460;42.684;23.260;2023-08-01T06:52:07;94214.75;;;23.50;58.19
12793;BME280;6460;42.684;23.260;2023-08-01T06:54:34;94210.53;;;23.58;58.15
12793;BME280;6460;42.684;23.260;2023-08-01T06:57:01;94220.31;;;23.59;56.10
12793;BME280;6460;42.684;23.260;2023-08-01T06:59:29;94216.63;;;23.84;56.14
12793;BME280;6460;42.684;23.260;2023-08-01T07:01:56;94213.75;;;23.88;57.39
12793;BME280;6460;42.684;23.260;2023-08-01T07:04:23;94225.59;;;24.28;54.71
12793;BME280;6460;42.684;23.260;2023-08-01T07:06:52;94217.81;;;24.27;55.15
12793;BME280;6460;42.684;23.260;2023-08-01T07:09:20;94218.22;;;24.65;54.28
12793;BME280;6460;42.684;23.260;2023-08-01T07:11:47;94207.50;;;24.98;53.20
12793;BME280;6460;42.684;23.260;2023-08-01T07:14:14;94208.88;;;25.20;52.77
12793;BME280;6460;42.684;23.260;2023-08-01T07:16:42;94210.25;;;25.25;52.49
12793;BME280;6460;42.684;23.260;2023-08-01T07:19:09;94202.59;;;25.38;51.28
12793;BME280;6460;42.684;23.260;2023-08-01T07:21:36;94203.69;;;25.50;51.08
12793;BME280;6460;42.684;23.260;2023-08-01T07:24:05;94196.94;;;25.78;50.31
12793;BME280;6460;42.684;23.260;2023-08-01T07:26:33;94196.56;;;25.94;49.49
12793;BME280;6460;42.684;23.260;2023-08-01T07:29:00;94188.91;;;25.98;49.53
12793;BME280;6460;42.684;23.260;2023-08-01T07:31:27;94190.91;;;26.16;48.68
12793;BME280;6460;42.684;23.260;2023-08-01T07:33:55;94189.53;;;26.02;48.75
12793;BME280;6460;42.684;23.260;2023-08-01T07:36:23;94190.44;;;25.99;49.50
12793;BME280;6460;42.684;23.260;2023-08-01T07:38:50;94196.13;;;25.96;49.28
12793;BME280;6460;42.684;23.260;2023-08-01T07:41:19;94196.31;;;25.83;49.12
12793;BME280;6460;42.684;23.260;2023-08-01T07:43:47;94191.06;;;26.03;48.96
12793;BME280;6460;42.684;23.260;2023-08-01T07:46:14;94195.75;;;26.21;48.14
12793;BME280;6460;42.684;23.260;2023-08-01T07:48:41;94200.38;;;26.06;48.69
12793;BME280;6460;42.684;23.260;2023-08-01T07:51:09;94195.31;;;26.22;49.00
12793;BME280;6460;42.684;23.260;2023-08-01T07:53:37;94189.88;;;26.70;46.84
12793;BME280;6460;42.684;23.260;2023-08-01T07:56:05;94186.09;;;26.58;47.99
12793;BME280;6460;42.684;23.260;2023-08-01T07:58:35;94184.78;;;27.01;46.71
12793;BME280;6460;42.684;23.260;2023-08-01T08:01:03;94190.53;;;27.12;46.66
12793;BME280;6460;42.684;23.260;2023-08-01T08:03:31;94183.50;;;27.11;46.61
12793;BME280;6460;42.684;23.260;2023-08-01T08:05:58;94180.00;;;27.25;46.25
12793;BME280;6460;42.684;23.260;2023-08-01T08:08:26;94177.06;;;27.29;46.96
12793;BME280;6460;42.684;23.260;2023-08-01T08:10:53;94174.75;;;27.51;45.55
12793;BME280;6460;42.684;23.260;2023-08-01T08:13:21;94173.16;;;27.35;46.68
12793;BME280;6460;42.684;23.260;2023-08-01T08:15:50;94169.63;;;27.20;45.66
12793;BME280;6460;42.684;23.260;2023-08-01T08:18:17;94169.03;;;27.16;46.18
12793;BME280;6460;42.684;23.260;2023-08-01T08:20:45;94162.28;;;27.56;45.60
12793;BME280;6460;42.684;23.260;2023-08-01T08:23:13;94165.94;;;27.38;45.31
12793;BME280;6460;42.684;23.260;2023-08-01T08:25:41;94167.03;;;27.70;44.92
12793;BME280;6460;42.684;23.260;2023-08-01T08:28:11;94160.56;;;28.02;43.49
12793;BME280;6460;42.684;23.260;2023-08-01T08:30:38;94166.88;;;28.17;42.70
12793;BME280;6460;42.684;23.260;2023-08-01T08:33:07;94163.63;;;28.33;42.06
12793;BME280;6460;42.684;23.260;2023-08-01T08:35:36;94150.97;;;28.62;41.80
12793;BME280;6460;42.684;23.260;2023-08-01T08:38:04;94146.91;;;28.77;41.04
12793;BME280;6460;42.684;23.260;2023-08-01T08:40:32;94149.06;;;29.08;40.88
12793;BME280;6460;42.684;23.260;2023-08-01T08:43:01;94144.19;;;29.44;39.79
12793;BME280;6460;42.684;23.260;2023-08-01T08:45:32;94148.56;;;29.50;39.67
12793;BME280;6460;42.684;23.260;2023-08-01T08:48:01;94146.13;;;29.58;39.66
12793;BME280;6460;42.684;23.260;2023-08-01T08:50:31;94136.88;;;29.66;38.93
12793;BME280;6460;42.684;23.260;2023-08-01T08:53:00;94132.88;;;29.42;40.46
12793;BME280;6460;42.684;23.260;2023-08-01T08:55:29;94132.84;;;28.61;41.22
12793;BME280;6460;42.684;23.260;2023-08-01T08:57:57;94137.28;;;29.33;40.27
12793;BME280;6460;42.684;23.260;2023-08-01T09:00:26;94132.91;;;29.73;39.43
12793;BME280;6460;42.684;23.260;2023-08-01T09:02:54;94128.72;;;29.11;40.44
12793;BME280;6460;42.684;23.260;2023-08-01T09:05:26;94128.84;;;29.02;41.33
12793;BME280;6460;42.684;23.260;2023-08-01T09:07:57;94124.41;;;29.10;40.86
12793;BME280;6460;42.684;23.260;2023-08-01T09:10:28;94116.50;;;29.44;39.96
12793;BME280;6460;42.684;23.260;2023-08-01T09:12:55;94126.66;;;29.78;39.43
12793;BME280;6460;42.684;23.260;2023-08-01T09:15:23;94121.28;;;29.69;39.26
12793;BME280;6460;42.684;23.260;2023-08-01T09:17:54;94105.38;;;30.26;38.16
12793;BME280;6460;42.684;23.260;2023-08-01T09:20:26;94110.34;;;30.11;38.20
12793;BME280;6460;42.684;23.260;2023-08-01T09:22:55;94103.69;;;30.77;37.32
12793;BME280;6460;42.684;23.260;2023-08-01T09:25:31;94097.06;;;29.89;38.30
12793;BME280;6460;42.684;23.260;2023-08-01T09:27:58;94104.28;;;30.92;36.85
12793;BME280;6460;42.684;23.260;2023-08-01T09:30:26;94105.13;;;30.24;37.32
12793;BME280;6460;42.684;23.260;2023-08-01T09:32:54;94112.47;;;28.44;40.73
12793;BME280;6460;42.684;23.260;2023-08-01T09:35:21;94107.56;;;28.68;40.39
12793;BME280;6460;42.684;23.260;2023-08-01T09:37:49;94099.16;;;29.74;38.66
12793;BME280;6460;42.684;23.260;2023-08-01T09:40:19;94107.19;;;30.66;36.66
12793;BME280;6460;42.684;23.260;2023-08-01T09:42:47;94094.63;;;30.82;36.59
12793;BME280;6460;42.684;23.260;2023-08-01T09:45:15;94096.09;;;30.66;36.42
12793;BME280;6460;42.684;23.260;2023-08-01T09:47:42;94092.47;;;31.03;35.63
12793;BME280;6460;42.684;23.260;2023-08-01T09:50:10;94085.50;;;30.70;36.22
12793;BME280;6460;42.684;23.260;2023-08-01T09:52:39;94083.44;;;31.24;35.11
12793;BME280;6460;42.684;23.260;2023-08-01T09:55:07;94070.09;;;31.34;34.65
12793;BME280;6460;42.684;23.260;2023-08-01T09:57:37;94075.44;;;30.30;36.25
12793;BME280;6460;42.684;23.260;2023-08-01T10:00:08;94071.03;;;31.03;36.12
12793;BME280;6460;42.684;23.260;2023-08-01T10:02:36;94069.06;;;31.37;35.08
12793;BME280;6460;42.684;23.260;2023-08-01T10:05:06;94055.97;;;31.43;34.96
12793;BME280;6460;42.684;23.260;2023-08-01T10:07:35;94057.47;;;31.38;34.88
12793;BME280;6460;42.684;23.260;2023-08-01T10:10:06;94051.63;;;31.20;35.19
12793;BME280;6460;42.684;23.260;2023-08-01T10:12:34;94053.13;;;31.21;35.34
12793;BME280;6460;42.684;23.260;2023-08-01T10:15:05;94050.94;;;30.66;34.93
12793;BME280;6460;42.684;23.260;2023-08-01T10:17:34;94049.28;;;30.96;34.68
12793;BME280;6460;42.684;23.260;2023-08-01T10:20:03;94045.34;;;30.12;36.66
12793;BME280;6460;42.684;23.260;2023-08-01T10:22:32;94040.91;;;30.85;34.77
12793;BME280;6460;42.684;23.260;2023-08-01T10:25:00;94038.13;;;30.85;35.47
12793;BME280;6460;42.684;23.260;2023-08-01T10:27:27;94031.63;;;30.99;34.99
12793;BME280;6460;42.684;23.260;2023-08-01T10:29:58;94032.44;;;31.27;34.48
12793;BME280;6460;42.684;23.260;2023-08-01T10:32:32;94031.22;;;31.39;33.92
12793;BME280;6460;42.684;23.260;2023-08-01T10:34:59;94022.16;;;31.67;33.21
12793;BME280;6460;42.684;23.260;2023-08-01T10:37:38;94023.94;;;31.81;32.13
12793;BME280;6460;42.684;23.260;2023-08-01T10:40:07;94019.63;;;31.85;32.78
12793;BME280;6460;42.684;23.260;2023-08-01T10:42:38;94017.38;;;31.84;32.51
12793;BME280;6460;42.684;23.260;2023-08-01T10:45:07;94013.06;;;31.50;30.65
12793;BME280;6460;42.684;23.260;2023-08-01T10:47:36;94009.53;;;31.77;27.22
12793;BME280;6460;42.684;23.260;2023-08-01T10:50:13;94007.00;;;31.90;26.66
12793;BME280;6460;42.684;23.260;2023-08-01T10:52:41;94010.56;;;31.52;27.55
12793;BME280;6460;42.684;23.260;2023-08-01T10:55:10;93995.38;;;31.41;27.46
12793;BME280;6460;42.684;23.260;2023-08-01T10:57:39;94001.06;;;30.82;28.08
12793;BME280;6460;42.684;23.260;2023-08-01T11:00:07;93994.84;;;32.04;26.87
12793;BME280;6460;42.684;23.260;2023-08-01T11:02:37;93988.56;;;31.54;26.77
12793;BME280;6460;42.684;23.260;2023-08-01T11:05:06;93988.31;;;31.90;26.53
12793;BME280;6460;42.684;23.260;2023-08-01T11:07:34;93985.50;;;31.29;27.13
12793;BME280;6460;42.684;23.260;2023-08-01T11:10:06;93983.25;;;31.44;24.48
12793;BME280;6460;42.684;23.260;2023-08-01T11:12:35;93973.94;;;31.59;25.68
12793;BME280;6460;42.684;23.260;2023-08-01T11:15:04;93981.13;;;30.84;24.83
12793;BME280;6460;42.684;23.260;2023-08-01T11:17:35;93965.59;;;31.53;24.68
12793;BME280;6460;42.684;23.260;2023-08-01T11:20:05;93963.59;;;32.56;24.09
12793;BME280;6460;42.684;23.260;2023-08-01T11:22:33;93977.72;;;31.61;23.49
12793;BME280;6460;42.684;23.260;2023-08-01T11:25:01;93968.81;;;31.18;25.22
12793;BME280;6460;42.684;23.260;2023-08-01T11:27:28;93960.28;;;31.55;25.68
12793;BME280;6460;42.684;23.260;2023-08-01T11:29:56;93970.31;;;30.32;23.86
12793;BME280;6460;42.684;23.260;2023-08-01T11:32:32;93959.50;;;31.32;23.43
12793;BME280;6460;42.684;23.260;2023-08-01T11:35:02;93955.97;;;31.87;24.27
12793;BME280;6460;42.684;23.260;2023-08-01T11:37:30;93954.09;;;32.34;21.96
12793;BME280;6460;42.684;23.260;2023-08-01T11:39:58;93964.06;;;31.69;23.75
12793;BME280;6460;42.684;23.260;2023-08-01T11:42:30;93965.78;;;32.05;22.70
12793;BME280;6460;42.684;23.260;2023-08-01T11:45:09;93954.44;;;31.75;22.05
12793;BME280;6460;42.684;23.260;2023-08-01T11:47:36;93942.59;;;31.69;22.08
12793;BME280;6460;42.684;23.260;2023-08-01T11:50:06;93936.34;;;32.95;21.67
12793;BME280;6460;42.684;23.260;2023-08-01T11:52:34;93938.91;;;32.35;22.50
12793;BME280;6460;42.684;23.260;2023-08-01T11:55:01;93933.06;;;32.44;22.29
12793;BME280;6460;42.684;23.260;2023-08-01T11:57:29;93933.66;;;32.15;22.54
12793;BME280;6460;42.684;23.260;2023-08-01T11:59:56;93928.63;;;32.08;21.81
12793;BME280;6460;42.684;23.260;2023-08-01T12:02:25;93917.97;;;32.75;20.87
12793;BME280;6460;42.684;23.260;2023-08-01T12:04:53;93922.31;;;32.71;22.45
12793;BME280;6460;42.684;23.260;2023-08-01T12:07:25;93924.94;;;32.46;21.41
12793;BME280;6460;42.684;23.260;2023-08-01T12:09:56;93920.66;;;32.92;21.03
12793;BME280;6460;42.684;23.260;2023-08-01T12:12:23;93921.00;;;32.25;21.34
12793;BME280;6460;42.684;23.260;2023-08-01T12:14:50;93907.91;;;31.98;22.06
12793;BME280;6460;42.684;23.260;2023-08-01T12:17:18;93915.06;;;32.45;22.01
12793;BME280;6460;42.684;23.260;2023-08-01T12:19:45;93906.66;;;32.05;22.86
12793;BME280;6460;42.684;23.260;2023-08-01T12:22:13;93903.88;;;33.03;21.29
12793;BME280;6460;42.684;23.260;2023-08-01T12:24:43;93901.34;;;33.05;21.75
12793;BME280;6460;42.684;23.260;2023-08-01T12:27:10;93902.44;;;32.44;21.58
12793;BME280;6460;42.684;23.260;2023-08-01T12:29:38;93906.38;;;32.71;21.03
12793;BME280;6460;42.684;23.260;2023-08-01T12:32:06;93909.03;;;33.29;21.03
12793;BME280;6460;42.684;23.260;2023-08-01T12:34:34;93911.88;;;32.30;22.03
12793;BME280;6460;42.684;23.260;2023-08-01T12:37:01;93918.56;;;31.83;22.30
12793;BME280;6460;42.684;23.260;2023-08-01T12:39:29;93897.78;;;32.12;21.56
12793;BME280;6460;42.684;23.260;2023-08-01T12:41:58;93891.66;;;32.76;21.27
12793;BME280;6460;42.684;23.260;2023-08-01T12:44:25;93890.31;;;32.88;21.44
12793;BME280;6460;42.684;23.260;2023-08-01T12:46:52;93891.56;;;32.93;21.74
12793;BME280;6460;42.684;23.260;2023-08-01T12:49:20;93886.94;;;33.01;20.84
12793;BME280;6460;42.684;23.260;2023-08-01T12:51:47;93885.06;;;33.44;20.87
12793;BME280;6460;42.684;23.260;2023-08-01T12:54:14;93890.53;;;32.49;21.77
12793;BME280;6460;42.684;23.260;2023-08-01T12:56:43;93880.75;;;32.78;22.26
12793;BME280;6460;42.684;23.260;2023-08-01T12:59:12;93876.03;;;33.09;22.12
12793;BME280;6460;42.684;23.260;2023-08-01T13:01:40;93887.59;;;32.77;21.95
12793;BME280;6460;42.684;23.260;2023-08-01T13:04:07;93876.13;;;32.92;21.59